鳥取空港の過去48時間の天気

鳥取空港 (Tottori)

現在時刻: 8/18 22:09 JST (8/18 13:09 UTC) 以下の時間は現地時間です。

過去48時間のMETAR気象情報
時間 風向 風速(m/s) 視程 気温(℃) 湿度(%) 気圧(hPa) 天気現象
18 21:00 南南西 2 10km以上 25 89 1008
18 20:00 南南西 2 10km以上 25 83 1008
18 19:00 西北西 3 10km以上 26 79 1007
18 18:00 北西 4 10km以上 27 74 1007
18 17:00 西北西 5 10km以上 28 74 1007
18 16:00 北西 5 10km以上 28 74 1006
18 15:00 北西 5 10km以上 28 70 1006
18 14:00 北北西 5 10km以上 28 74 1007
18 13:00 北西 4 10km以上 29 70 1006
18 12:00 西北西 5 10km以上 29 74 1006
18 11:00 西北西 6 10km以上 28 79 1006
18 10:00 西 5 10km以上 27 74 1007
18 09:00 西 4 10km以上 27 79 1007
18 08:00 不定 1 10km以上 26 79 1007
18 07:00 南南西 2 10km以上 24 94 1007
18 06:30 南西 2 10km以上 25 83 1006
18 06:10 南西 2 10km以上 24 89 1006
17 21:00 不定 1 10km以上 26 89 1005
17 20:00 不定 1 10km以上 26 89 1006
17 19:00 不定 1 10km以上 26 89 1006
17 18:00 南南西 3 10km以上 26 84 1006
17 17:27 西 5 10km以上 25 94 1006 弱いしゅう雨
17 17:00 南南西 2 10km以上 29 74 1006
17 16:00 南南東 5 10km以上 30 66 1005
17 15:00 南南東 3 10km以上 29 74 1006
17 14:00 北東 4 10km以上 27 84 1007
17 13:00 北東 5 10km以上 27 84 1007 弱いしゅう雨
17 12:00 東南東 2 10km以上 26 89 1008 弱いしゅう雨
17 11:00 南東 3 10km以上 25 94 1008 弱いしゅう雨
17 10:00 南東 3 10km以上 25 89 1009 弱いしゅう雨
17 09:00 南南東 3 10km以上 24 94 1008 弱いしゅう雨
17 08:00 南東 3 10km以上 24 94 1009 弱いしゅう雨
17 07:00 南東 2 10km以上 23 94 1009 弱いしゅう雨
17 06:30 南南西 2 10km以上 24 94 1009 弱いしゅう雨
17 06:10 南南東 2 10km以上 23 94 1009
RJOR 181200Z 20003KT 9999 FEW025 25/23 Q1008
RJOR 181100Z 21003KT 9999 FEW025 25/22 Q1008
RJOR 181000Z 29005KT 9999 FEW025 26/22 Q1007
RJOR 180900Z 31007KT 9999 FEW025 27/22 Q1007
RJOR 180800Z 30009KT 9999 FEW025 28/23 Q1007
RJOR 180700Z 32009KT 9999 FEW025 28/23 Q1006
RJOR 180600Z 31009KT 9999 FEW025 28/22 Q1006
RJOR 180500Z 33009KT 9999 FEW025 28/23 Q1007
RJOR 180400Z 32008KT 9999 FEW035 29/23 Q1006
RJOR 180300Z 29010KT 9999 FEW035 29/24 Q1006
RJOR 180200Z 30012KT 9999 FEW035 28/24 Q1006
RJOR 180100Z 28009KT 9999 FEW035 SCT050 27/22 Q1007
RJOR 180000Z 26008KT 9999 FEW035 SCT050 27/23 Q1007
RJOR 172300Z VRB02KT 9999 FEW010 26/22 Q1007
RJOR 172200Z 20003KT 150V230 9999 FEW005 SCT160 24/23 Q1007
RJOR 172130Z 23004KT 9999 FEW005 BKN160 25/22 Q1006
RJOR 172110Z 23003KT 9999 FEW005 BKN160 24/22 Q1006 RMK 1ST005 5AC160 A2972
RJOR 171200Z VRB02KT 9999 FEW020 SCT070 BKN120 26/24 Q1005
RJOR 171100Z VRB02KT 9999 FEW020 SCT070 BKN120 26/24 Q1006
RJOR 171000Z VRB01KT 9999 FEW020 SCT150 BKN/// 26/24 Q1006
RJOR 170900Z 20006KT 140V280 9999 FEW020 SCT070 BKN120 26/23 Q1006
RJOR 170827Z 27010KT 9999 R10/2000N -SHRA FEW020 FEW025CB SCT035 BKN045 25/24 Q1006 RMK 1CU020 1CB025 3CU035 5CU045 A2973 CB 25KM NE MOV E
RJOR 170800Z 21003KT 160V250 9999 TS FEW020 FEW025CB SCT045 BKN070 29/24 Q1006
RJOR 170700Z 16009KT 130V190 9999 FEW025 SCT080 BKN160 30/23 Q1005
RJOR 170600Z 15005KT 110V190 9999 FEW025 SCT045 BKN070 29/24 Q1006
RJOR 170500Z 05007KT 9999 FEW020 SCT045 BKN120 27/24 Q1007
RJOR 170400Z 05009KT 9999 -SHRA FEW015 SCT045 BKN100 27/24 Q1007
RJOR 170300Z 12004KT 9999 -SHRA FEW005 SCT040 BKN070 26/24 Q1008
RJOR 170200Z 14006KT 9999 -SHRA FEW005 SCT008 BKN030 25/24 Q1008
RJOR 170100Z 13005KT 9999 -SHRA FEW008 SCT030 BKN070 25/23 Q1009
RJOR 170000Z 15005KT 130V190 9999 -SHRA FEW008 SCT030 BKN070 24/23 Q1008
RJOR 162300Z 14005KT 9999 -SHRA FEW008 SCT030 BKN120 24/23 Q1009
RJOR 162200Z 14004KT 9999 -SHRA FEW008 SCT030 BKN100 23/22 Q1009
RJOR 162130Z 20004KT 9999 -SHRA FEW025 SCT030 BKN100 24/23 Q1009
RJOR 162110Z 15003KT 120V190 9999 FEW025 SCT030 BKN050 23/22 Q1009 RMK 1CU025 3CU030 5SC050 A2980